createdAt,value
2019-03-21T00:00:20.515Z,16.8
2019-03-21T00:01:22.942Z,16.8
2019-03-21T00:02:25.365Z,16.9
2019-03-21T00:03:27.789Z,16.8
2019-03-21T00:04:30.208Z,16.8
2019-03-21T00:05:32.364Z,16.9
2019-03-21T00:06:34.799Z,16.9
2019-03-21T00:07:37.231Z,16.9
2019-03-21T00:08:39.366Z,16.9
2019-03-21T00:09:41.543Z,16.9
2019-03-21T00:10:43.959Z,16.8
2019-03-21T00:11:46.389Z,16.9
2019-03-21T00:12:47.991Z,17
2019-03-21T00:13:50.410Z,16.9
2019-03-21T00:14:52.838Z,17
2019-03-21T00:15:54.707Z,17.1
2019-03-21T00:16:56.847Z,17
2019-03-21T00:17:59.003Z,17.1
2019-03-21T00:19:01.455Z,17
2019-03-21T00:20:03.883Z,17
2019-03-21T00:21:06.318Z,17.1
2019-03-21T00:22:08.751Z,17.1
2019-03-21T00:23:10.628Z,17.2
2019-03-21T00:24:13.047Z,17.1
2019-03-21T00:25:15.485Z,17.1
2019-03-21T00:26:17.642Z,17.2
2019-03-21T00:27:19.808Z,17.2
2019-03-21T00:28:21.669Z,17.2
2019-03-21T00:29:23.823Z,17.2
2019-03-21T00:30:26.255Z,17.2
2019-03-21T00:31:28.691Z,17.2
2019-03-21T00:32:31.111Z,17.2
2019-03-21T00:33:33.527Z,17.3
2019-03-21T00:34:35.668Z,17.3
2019-03-21T00:35:39.239Z,17.3
2019-03-21T00:36:41.711Z,17.3
2019-03-21T00:37:43.858Z,17.2
2019-03-21T00:38:46.300Z,17.3
2019-03-21T00:39:48.729Z,17.3
2019-03-21T00:40:50.888Z,17.3
2019-03-21T00:41:53.029Z,17.2
2019-03-21T00:42:55.203Z,17.3
2019-03-21T00:43:57.639Z,17.3
2019-03-21T00:45:00.064Z,17.3
2019-03-21T00:46:02.199Z,17.3
2019-03-21T00:47:04.629Z,17.2
2019-03-21T00:48:06.789Z,17.3
2019-03-21T00:49:08.939Z,17.2
2019-03-21T00:50:10.829Z,17.4
2019-03-21T00:51:13.262Z,17.4
2019-03-21T00:52:15.727Z,17.3
2019-03-21T00:53:17.896Z,17.3
2019-03-21T00:54:20.058Z,17.4
2019-03-21T00:55:22.489Z,17.3
2019-03-21T00:56:24.596Z,17.3
2019-03-21T00:57:27.022Z,17.3
2019-03-21T00:58:29.449Z,17.4
2019-03-21T00:59:31.599Z,17.3
2019-03-21T01:00:33.458Z,17.3
2019-03-21T01:01:35.605Z,17.3
2019-03-21T01:02:37.772Z,17.4
2019-03-21T01:03:40.201Z,17.4
2019-03-21T01:04:42.621Z,17.3
2019-03-21T01:05:44.777Z,17.4
2019-03-21T01:06:47.219Z,17.4
2019-03-21T01:07:49.649Z,17.4
2019-03-21T01:08:51.825Z,17.4
2019-03-21T01:09:54.378Z,17.4
2019-03-21T01:10:56.381Z,17.4
2019-03-21T01:11:58.848Z,17.4
2019-03-21T01:13:01.302Z,17.5
2019-03-21T01:14:03.228Z,17.4
2019-03-21T01:15:05.382Z,17.4
2019-03-21T01:16:07.809Z,17.4
2019-03-21T01:17:09.942Z,17.4
2019-03-21T01:18:12.079Z,17.3
2019-03-21T01:19:14.509Z,17.4
2019-03-21T01:20:16.953Z,17.4
2019-03-21T01:21:19.419Z,17.4
2019-03-21T01:22:21.865Z,17.3
2019-03-21T01:23:24.050Z,17.4
2019-03-21T01:24:25.925Z,17.3
2019-03-21T01:25:28.341Z,17.4
2019-03-21T01:26:30.762Z,17.4
2019-03-21T01:27:33.193Z,17.4
2019-03-21T01:28:35.349Z,17.3
2019-03-21T01:29:37.773Z,17.4
2019-03-21T01:30:39.929Z,17.4
2019-03-21T01:31:42.359Z,17.4
2019-03-21T01:32:44.803Z,17.5
2019-03-21T01:33:46.708Z,17.4
2019-03-21T01:34:48.877Z,17.4
2019-03-21T01:35:51.301Z,17.4
2019-03-21T01:36:53.733Z,17.5
2019-03-21T01:37:56.158Z,17.4
2019-03-21T01:38:58.606Z,17.4
2019-03-21T01:40:01.030Z,17.4
2019-03-21T01:41:03.475Z,17.5
2019-03-21T01:42:05.623Z,17.3
2019-03-21T01:43:08.077Z,17.4
2019-03-21T01:44:10.240Z,17.4
2019-03-21T01:45:12.663Z,17.4
2019-03-21T01:46:14.529Z,17.4
2019-03-21T01:47:16.959Z,17.4
2019-03-21T01:48:19.133Z,17.4
2019-03-21T01:49:21.560Z,17.4
2019-03-21T01:50:23.993Z,17.4
2019-03-21T01:51:26.129Z,17.4
2019-03-21T01:52:28.037Z,17.4
2019-03-21T01:53:29.927Z,17.4
2019-03-21T01:54:32.080Z,17.5
2019-03-21T01:55:34.518Z,17.5
2019-03-21T01:56:36.657Z,17.4
2019-03-21T01:57:38.818Z,17.5
2019-03-21T01:58:41.262Z,17.5
2019-03-21T01:59:43.770Z,17.4
2019-03-21T02:00:46.197Z,17.4
2019-03-21T02:01:48.640Z,17.5
2019-03-21T02:02:51.062Z,17.4
2019-03-21T02:03:52.939Z,17.5
2019-03-21T02:04:55.097Z,17.4
2019-03-21T02:05:57.257Z,17.4
2019-03-21T02:06:59.687Z,17.5
2019-03-21T02:08:02.738Z,17.5
2019-03-21T02:09:05.072Z,17.4
2019-03-21T02:10:07.253Z,17.4
2019-03-21T02:11:09.692Z,17.4
2019-03-21T02:12:11.849Z,17.5
2019-03-21T02:13:13.452Z,17.5
2019-03-21T02:14:15.670Z,17.6
2019-03-21T02:15:17.950Z,17.5
2019-03-21T02:16:20.119Z,17.5
2019-03-21T02:17:22.547Z,17.5
2019-03-21T02:18:24.676Z,17.5
2019-03-21T02:19:27.099Z,17.5
2019-03-21T02:20:29.257Z,17.6
2019-03-21T02:21:31.409Z,17.5
2019-03-21T02:22:33.276Z,17.5
2019-03-21T02:23:35.437Z,17.6
2019-03-21T02:24:37.598Z,17.5
2019-03-21T02:25:40.044Z,17.5
2019-03-21T02:26:42.181Z,17.5
2019-03-21T02:27:44.338Z,17.6
2019-03-21T02:28:46.481Z,17.5
2019-03-21T02:29:48.349Z,17.6
2019-03-21T02:30:50.793Z,17.5
2019-03-21T02:31:53.215Z,17.5
2019-03-21T02:32:55.377Z,17.5
2019-03-21T02:33:57.523Z,17.5
2019-03-21T02:34:59.946Z,17.5
2019-03-21T02:36:02.507Z,17.5
2019-03-21T02:37:04.922Z,17.6
2019-03-21T02:38:07.070Z,17.5
2019-03-21T02:39:09.236Z,17.5
2019-03-21T02:40:11.658Z,17.5
2019-03-21T02:41:13.809Z,17.6
2019-03-21T02:42:15.946Z,17.5
2019-03-21T02:43:18.389Z,17.6
2019-03-21T02:44:20.555Z,17.6
2019-03-21T02:45:22.719Z,17.5
2019-03-21T02:46:24.883Z,17.5
2019-03-21T02:47:27.357Z,17.5
2019-03-21T02:48:29.821Z,17.6
2019-03-21T02:49:32.245Z,17.6
2019-03-21T02:50:34.670Z,17.5
2019-03-21T02:51:37.099Z,17.5
2019-03-21T02:52:39.525Z,17.6
2019-03-21T02:53:41.960Z,17.6
2019-03-21T02:54:44.396Z,17.6
2019-03-21T02:55:46.820Z,17.6
2019-03-21T02:56:48.970Z,17.5
2019-03-21T02:57:51.125Z,17.6
2019-03-21T02:58:53.568Z,17.5
2019-03-21T02:59:55.740Z,17.5
2019-03-21T03:00:57.899Z,17.5
2019-03-21T03:02:00.069Z,17.5
2019-03-21T03:03:02.238Z,17.5
2019-03-21T03:04:04.466Z,17.6
2019-03-21T03:05:06.889Z,17.5
2019-03-21T03:06:09.323Z,17.6
2019-03-21T03:07:11.203Z,17.6
2019-03-21T03:08:13.659Z,17.5
2019-03-21T03:09:15.809Z,17.6
2019-03-21T03:10:18.240Z,17.6
2019-03-21T03:11:20.421Z,17.5
2019-03-21T03:12:22.835Z,17.6
2019-03-21T03:13:25.008Z,17.5
2019-03-21T03:14:26.873Z,17.6
2019-03-21T03:15:29.021Z,17.6
2019-03-21T03:16:31.180Z,17.5
2019-03-21T03:17:33.329Z,17.5
2019-03-21T03:18:35.462Z,17.6
2019-03-21T03:19:37.616Z,17.6
2019-03-21T03:20:39.793Z,17.5
2019-03-21T03:21:42.222Z,17.6
2019-03-21T03:22:44.630Z,17.5
2019-03-21T03:23:46.771Z,17.6
2019-03-21T03:24:49.320Z,17.6
2019-03-21T03:25:52.247Z,17.5
2019-03-21T03:26:54.407Z,17.5
2019-03-21T03:27:56.559Z,17.6
2019-03-21T03:28:58.696Z,17.5
2019-03-21T03:30:01.187Z,17.5
2019-03-21T03:31:03.354Z,17.5
2019-03-21T03:32:05.829Z,17.5
2019-03-21T03:33:08.070Z,17.7
2019-03-21T03:34:09.983Z,17.5
2019-03-21T03:35:12.427Z,17.6
2019-03-21T03:36:14.624Z,17.6
2019-03-21T03:37:17.055Z,17.6
2019-03-21T03:38:19.499Z,17.6
2019-03-21T03:39:21.663Z,17.5
2019-03-21T03:40:24.086Z,17.7
2019-03-21T03:41:26.252Z,17.5
2019-03-21T03:42:28.695Z,17.6
2019-03-21T03:43:30.620Z,17.6
2019-03-21T03:44:32.489Z,17.6
2019-03-21T03:46:39.897Z,17.6
2019-03-21T03:47:42.332Z,17.7
2019-03-21T03:48:44.469Z,17.6
2019-03-21T03:49:46.613Z,17.6
2019-03-21T03:50:49.029Z,17.6
2019-03-21T03:51:51.217Z,17.6
2019-03-21T03:52:53.648Z,17.7
2019-03-21T03:53:56.091Z,17.6
2019-03-21T03:54:58.226Z,17.6
2019-03-21T03:56:00.677Z,17.5
2019-03-21T03:57:03.099Z,17.7
2019-03-21T03:58:05.259Z,17.6
2019-03-21T03:59:07.678Z,17.6
2019-03-21T04:00:10.107Z,17.6
2019-03-21T04:01:12.019Z,17.6
2019-03-21T04:02:13.871Z,17.7
2019-03-21T04:03:16.357Z,17.5
2019-03-21T04:04:18.786Z,17.6
2019-03-21T04:05:21.213Z,17.5
2019-03-21T04:06:23.653Z,17.5
2019-03-21T04:07:25.818Z,17.6
2019-03-21T04:08:28.272Z,17.6
2019-03-21T04:09:30.688Z,17.5
2019-03-21T04:10:33.120Z,17.5
2019-03-21T04:11:35.283Z,17.4
2019-03-21T04:12:37.773Z,17.4
2019-03-21T04:13:40.197Z,17.3
2019-03-21T04:14:42.637Z,17.4
2019-03-21T04:16:50.055Z,17.4
2019-03-21T04:17:52.483Z,17.3
2019-03-21T04:18:54.439Z,17.4
2019-03-21T04:19:56.869Z,17.4
2019-03-21T04:20:59.008Z,17.3
2019-03-21T04:22:01.170Z,17.3
2019-03-21T04:23:03.317Z,17.3
2019-03-21T04:24:05.765Z,17.2
2019-03-21T04:25:07.385Z,17.3
2019-03-21T04:26:09.537Z,17.3
2019-03-21T04:27:11.699Z,17.2
2019-03-21T04:28:13.858Z,17.2
2019-03-21T04:29:16.013Z,17.2
2019-03-21T04:30:17.933Z,17.2
2019-03-21T04:31:19.879Z,17.2
2019-03-21T04:32:22.306Z,17.2
2019-03-21T04:33:24.229Z,17.2
2019-03-21T04:34:26.409Z,17.3
2019-03-21T04:35:28.839Z,17.2
2019-03-21T04:36:31.279Z,17.1
2019-03-21T04:37:33.706Z,17.2
2019-03-21T04:38:36.127Z,17.2
2019-03-21T04:39:38.035Z,17.2
2019-03-21T04:40:40.186Z,17.3
2019-03-21T04:41:42.445Z,17.1
2019-03-21T04:42:44.866Z,17.2
2019-03-21T04:43:47.306Z,17.1
2019-03-21T04:44:49.773Z,17.1
2019-03-21T04:46:57.192Z,17.2
2019-03-21T04:47:59.617Z,17.1
2019-03-21T04:49:01.764Z,17.1
2019-03-21T04:50:03.907Z,17.1
2019-03-21T04:51:06.072Z,17.1
2019-03-21T04:52:08.505Z,17
2019-03-21T04:53:10.386Z,17.1
2019-03-21T04:54:12.819Z,17.1
2019-03-21T04:55:15.239Z,17.1
2019-03-21T04:56:17.391Z,17
2019-03-21T04:57:19.820Z,17.1
2019-03-21T04:58:21.986Z,17
2019-03-21T04:59:24.183Z,17.1
2019-03-21T05:00:26.616Z,17.1
2019-03-21T05:01:28.227Z,17.1
2019-03-21T05:02:30.440Z,17.1
2019-03-21T05:03:32.592Z,17
2019-03-21T05:04:35.004Z,17.1
2019-03-21T05:05:37.153Z,17.1
2019-03-21T05:06:39.597Z,17.1
2019-03-21T05:07:41.761Z,17
2019-03-21T05:08:43.630Z,17.1
2019-03-21T05:09:46.057Z,17.1
2019-03-21T05:10:48.235Z,17
2019-03-21T05:11:50.711Z,17
2019-03-21T05:12:52.581Z,17
2019-03-21T05:13:55.007Z,17.1
2019-03-21T05:14:57.465Z,17
2019-03-21T05:15:59.903Z,16.9
2019-03-21T05:17:02.059Z,17
2019-03-21T05:18:04.216Z,17.1
2019-03-21T05:19:06.123Z,17
2019-03-21T05:20:08.550Z,17
2019-03-21T05:21:10.985Z,17
2019-03-21T05:22:13.406Z,17
2019-03-21T05:23:15.855Z,17.1
2019-03-21T05:24:18.020Z,17.1
2019-03-21T05:25:20.147Z,17
2019-03-21T05:26:22.320Z,16.9
2019-03-21T05:27:24.762Z,16.9
2019-03-21T05:28:27.194Z,16.9
2019-03-21T05:29:29.639Z,17
2019-03-21T05:30:31.543Z,17
2019-03-21T05:31:33.978Z,16.9
2019-03-21T05:32:36.402Z,17
2019-03-21T05:33:38.550Z,16.9
2019-03-21T05:34:40.698Z,17.1
2019-03-21T05:35:42.842Z,17
2019-03-21T05:36:45.274Z,16.9
2019-03-21T05:37:46.884Z,17
2019-03-21T05:38:49.308Z,17
2019-03-21T05:39:51.746Z,17
2019-03-21T05:40:54.182Z,17
2019-03-21T05:41:56.605Z,17
2019-03-21T05:42:59.053Z,16.9
2019-03-21T05:44:01.238Z,17
2019-03-21T05:45:03.415Z,16.9
2019-03-21T05:46:05.826Z,17
2019-03-21T05:47:07.979Z,17
2019-03-21T05:48:10.416Z,17
2019-03-21T05:49:12.854Z,16.9
2019-03-21T05:50:15.587Z,16.9
2019-03-21T05:51:17.748Z,17
2019-03-21T05:52:20.169Z,17
2019-03-21T05:53:22.305Z,16.9
2019-03-21T05:54:24.733Z,17
2019-03-21T05:55:27.429Z,17
2019-03-21T05:56:29.568Z,17
2019-03-21T05:57:32.020Z,17
2019-03-21T05:58:34.149Z,17
2019-03-21T05:59:36.326Z,17
2019-03-21T06:00:38.488Z,16.9
2019-03-21T06:01:40.955Z,17
2019-03-21T06:02:43.113Z,16.9
2019-03-21T06:03:44.976Z,17
2019-03-21T06:04:47.137Z,16.9
2019-03-21T06:05:49.563Z,17
2019-03-21T06:06:51.975Z,16.9
2019-03-21T06:07:54.404Z,17
2019-03-21T06:08:56.833Z,16.8
2019-03-21T06:09:58.998Z,17
2019-03-21T06:11:01.510Z,16.9
2019-03-21T06:12:03.384Z,17
2019-03-21T06:13:05.525Z,16.9
2019-03-21T06:14:08.016Z,16.9
2019-03-21T06:15:10.439Z,16.8
2019-03-21T06:16:12.879Z,17
2019-03-21T06:17:15.304Z,16.9
2019-03-21T06:18:17.739Z,16.9
2019-03-21T06:19:19.907Z,17
2019-03-21T06:20:21.495Z,16.9
2019-03-21T06:21:23.638Z,16.8
2019-03-21T06:22:25.796Z,16.9
2019-03-21T06:23:27.428Z,16.9
2019-03-21T06:24:29.849Z,16.9
2019-03-21T06:25:32.283Z,16.9
2019-03-21T06:26:34.747Z,17.1
2019-03-21T06:27:37.215Z,16.9
2019-03-21T06:28:39.383Z,16.9
2019-03-21T06:29:41.559Z,16.8
2019-03-21T06:30:44.032Z,17
2019-03-21T06:31:46.480Z,16.9
2019-03-21T06:32:48.917Z,16.8
2019-03-21T06:33:51.349Z,17
2019-03-21T06:34:53.842Z,16.9
2019-03-21T06:35:56.265Z,16.8
2019-03-21T06:36:58.687Z,16.8
2019-03-21T06:38:01.118Z,16.9
2019-03-21T06:39:03.281Z,16.9
2019-03-21T06:40:05.415Z,16.8
2019-03-21T06:41:07.585Z,16.9
2019-03-21T06:42:09.728Z,16.9
2019-03-21T06:43:12.146Z,16.8
2019-03-21T06:44:14.299Z,16.8
2019-03-21T06:45:16.728Z,16.9
2019-03-21T06:46:19.164Z,16.9
2019-03-21T06:47:21.586Z,16.9
2019-03-21T06:48:23.729Z,16.9
2019-03-21T06:49:26.163Z,16.9
2019-03-21T06:50:28.590Z,17
2019-03-21T06:51:30.749Z,16.9
2019-03-21T06:52:32.640Z,17
2019-03-21T06:53:35.058Z,17
2019-03-21T06:54:37.516Z,16.9
2019-03-21T06:55:39.684Z,16.9
2019-03-21T06:56:41.569Z,16.9
2019-03-21T06:57:43.776Z,16.8
2019-03-21T06:58:46.205Z,16.8
2019-03-21T06:59:48.364Z,16.8
2019-03-21T07:00:50.533Z,16.8
2019-03-21T07:01:52.683Z,16.8
2019-03-21T07:02:54.836Z,16.8
2019-03-21T07:05:01.714Z,16.9
2019-03-21T07:06:04.152Z,16.9
2019-03-21T07:08:11.558Z,17
2019-03-21T07:09:13.729Z,16.9
2019-03-21T07:10:16.152Z,16.8
2019-03-21T07:11:18.302Z,16.8
2019-03-21T07:12:20.752Z,16.9
2019-03-21T07:13:22.627Z,16.9
2019-03-21T07:14:25.061Z,16.9
2019-03-21T07:15:27.500Z,16.9
2019-03-21T07:16:29.929Z,16.8
2019-03-21T07:17:32.082Z,16.8
2019-03-21T07:18:33.948Z,16.9
2019-03-21T07:19:36.384Z,16.9
2019-03-21T07:20:38.819Z,16.9
2019-03-21T07:21:41.255Z,16.9
2019-03-21T07:22:43.411Z,16.9
2019-03-21T07:23:45.837Z,16.9
2019-03-21T07:24:48.022Z,16.9
2019-03-21T07:25:49.879Z,16.9
2019-03-21T07:26:52.045Z,16.8
2019-03-21T07:27:54.466Z,16.8
2019-03-21T07:28:56.629Z,16.9
2019-03-21T07:29:59.067Z,16.8
2019-03-21T07:31:01.377Z,16.9
2019-03-21T07:32:03.537Z,16.8
2019-03-21T07:33:05.964Z,16.9
2019-03-21T07:35:13.376Z,16.9
2019-03-21T07:36:15.827Z,16.8
2019-03-21T07:37:18.258Z,16.9
2019-03-21T07:38:20.426Z,16.8
2019-03-21T07:39:22.837Z,16.8
2019-03-21T07:40:25.011Z,16.9
2019-03-21T07:41:27.458Z,16.9
2019-03-21T07:42:29.919Z,16.9
2019-03-21T07:43:32.067Z,16.8
2019-03-21T07:44:34.227Z,16.9
2019-03-21T07:45:36.093Z,16.9
2019-03-21T07:46:38.527Z,16.8
2019-03-21T07:47:40.957Z,16.7
2019-03-21T07:48:43.105Z,16.9
2019-03-21T07:49:45.544Z,16.9
2019-03-21T07:50:47.695Z,16.8
2019-03-21T07:51:49.868Z,16.8
2019-03-21T07:52:52.313Z,16.8
2019-03-21T07:53:54.479Z,17
2019-03-21T07:54:56.928Z,16.8
2019-03-21T07:55:59.358Z,16.9
2019-03-21T07:57:01.819Z,16.9
2019-03-21T07:58:04.246Z,16.9
2019-03-21T07:59:06.700Z,16.9
2019-03-21T08:00:09.138Z,16.9
2019-03-21T08:01:11.361Z,16.8
2019-03-21T08:02:13.808Z,16.8
2019-03-21T08:03:16.234Z,16.9
2019-03-21T08:04:18.668Z,16.8
2019-03-21T08:05:21.139Z,16.9
2019-03-21T08:06:23.561Z,16.8
2019-03-21T08:07:25.746Z,16.8
2019-03-21T08:08:27.918Z,16.7
2019-03-21T08:09:30.434Z,16.9
2019-03-21T08:10:33.301Z,16.8
2019-03-21T08:11:35.727Z,16.8
2019-03-21T08:12:38.144Z,16.8
2019-03-21T08:13:40.039Z,16.9
2019-03-21T08:14:42.213Z,16.8
2019-03-21T08:15:44.377Z,16.8
2019-03-21T08:16:46.864Z,16.8
2019-03-21T08:17:48.728Z,16.8
2019-03-21T08:18:50.609Z,16.9
2019-03-21T08:19:52.224Z,16.8
2019-03-21T08:21:59.634Z,16.9
2019-03-21T08:23:02.056Z,16.8
2019-03-21T08:24:04.488Z,16.8
2019-03-21T08:25:06.916Z,16.9
2019-03-21T08:26:09.092Z,17
2019-03-21T08:27:11.542Z,16.8
2019-03-21T08:28:13.682Z,16.8
2019-03-21T08:29:16.110Z,16.8
2019-03-21T08:30:18.547Z,16.9
2019-03-21T08:31:20.710Z,16.9
2019-03-21T08:32:23.131Z,16.8
2019-03-21T08:33:25.292Z,16.8
2019-03-21T08:34:27.708Z,16.8
2019-03-21T08:35:30.126Z,16.8
2019-03-21T08:36:32.563Z,16.8
2019-03-21T08:37:35.005Z,16.8
2019-03-21T08:38:37.176Z,16.9
2019-03-21T08:39:39.607Z,16.9
2019-03-21T08:40:43.278Z,16.9
2019-03-21T08:41:45.730Z,16.8
2019-03-21T08:42:48.159Z,16.9
2019-03-21T08:43:50.035Z,16.9
2019-03-21T08:44:52.475Z,16.8
2019-03-21T08:45:54.908Z,16.8
2019-03-21T08:46:57.056Z,16.8
2019-03-21T08:47:59.489Z,16.8
2019-03-21T08:49:01.908Z,16.9
2019-03-21T08:50:04.341Z,16.8
2019-03-21T08:52:11.774Z,16.8
2019-03-21T08:53:14.259Z,16.9
2019-03-21T08:54:16.147Z,16.8
2019-03-21T08:55:18.562Z,16.8
2019-03-21T08:56:20.495Z,16.9
2019-03-21T08:57:22.934Z,16.9
2019-03-21T08:58:25.351Z,16.8
2019-03-21T08:59:27.229Z,16.8
2019-03-21T09:01:34.106Z,16.8
2019-03-21T09:02:36.263Z,16.8
2019-03-21T09:03:38.702Z,16.8
2019-03-21T09:04:40.869Z,16.8
2019-03-21T09:05:43.288Z,16.8
2019-03-21T09:06:45.487Z,16.8
2019-03-21T09:07:47.466Z,16.8
2019-03-21T09:08:49.640Z,16.9
2019-03-21T09:09:52.096Z,16.8
2019-03-21T09:10:54.008Z,16.8
2019-03-21T09:11:56.505Z,16.9
2019-03-21T09:12:58.646Z,16.9
2019-03-21T09:14:00.810Z,16.8
2019-03-21T09:15:03.242Z,16.8
2019-03-21T09:16:05.408Z,16.9
2019-03-21T09:17:07.538Z,16.8
2019-03-21T09:18:09.988Z,16.8
2019-03-21T09:19:12.423Z,16.9
2019-03-21T09:20:14.284Z,16.8
2019-03-21T09:22:21.688Z,16.8
2019-03-21T09:23:23.834Z,16.9
2019-03-21T09:24:25.967Z,16.8
2019-03-21T09:25:28.398Z,16.9
2019-03-21T09:26:30.570Z,16.8
2019-03-21T09:27:32.439Z,16.8
2019-03-21T09:28:34.582Z,16.8
2019-03-21T09:29:37.016Z,16.8
2019-03-21T09:30:39.437Z,16.9
2019-03-21T09:31:41.862Z,16.8
2019-03-21T09:32:44.299Z,16.8
2019-03-21T09:33:46.729Z,16.8
2019-03-21T09:34:48.361Z,16.8
2019-03-21T09:35:50.825Z,16.8
2019-03-21T09:36:52.703Z,16.8
2019-03-21T09:37:54.852Z,16.9
2019-03-21T09:38:57.010Z,16.8
2019-03-21T09:39:58.608Z,16.8
2019-03-21T09:41:01.034Z,16.9
2019-03-21T09:42:03.195Z,16.8
2019-03-21T09:43:05.362Z,16.8
2019-03-21T09:44:07.508Z,16.9
2019-03-21T09:45:09.939Z,16.8
2019-03-21T09:46:12.369Z,16.9
2019-03-21T09:47:13.958Z,16.8
2019-03-21T09:48:16.437Z,16.8
2019-03-21T09:49:18.886Z,16.8
2019-03-21T09:50:21.081Z,16.8
2019-03-21T09:52:28.198Z,16.8
2019-03-21T09:53:30.369Z,16.8
2019-03-21T09:54:32.807Z,16.9
2019-03-21T09:55:35.238Z,16.8
2019-03-21T09:56:37.668Z,16.8
2019-03-21T09:57:40.136Z,16.9
2019-03-21T09:58:42.656Z,16.8
2019-03-21T09:59:45.085Z,16.9
2019-03-21T10:00:47.239Z,16.8
2019-03-21T10:01:49.386Z,16.8
2019-03-21T10:02:51.832Z,16.8
2019-03-21T10:03:54.341Z,16.8
2019-03-21T10:04:56.859Z,16.9
2019-03-21T10:05:59.052Z,16.9
2019-03-21T10:07:01.494Z,16.8
2019-03-21T10:08:03.926Z,16.8
2019-03-21T10:09:06.107Z,16.8
2019-03-21T10:10:08.528Z,16.9
2019-03-21T10:11:10.386Z,16.8
2019-03-21T10:12:12.828Z,16.8
2019-03-21T10:13:15.268Z,16.8
2019-03-21T10:14:17.694Z,16.9
2019-03-21T10:15:20.141Z,16.9
2019-03-21T10:16:22.572Z,16.8
2019-03-21T10:17:24.729Z,16.8
2019-03-21T10:18:27.149Z,16.8
2019-03-21T10:19:29.311Z,16.9
2019-03-21T10:20:31.747Z,16.8
2019-03-21T10:22:39.150Z,16.8
2019-03-21T10:23:41.568Z,16.8
2019-03-21T10:24:44.002Z,16.8
2019-03-21T10:25:46.418Z,16.9
2019-03-21T10:26:48.861Z,16.9
2019-03-21T10:27:51.018Z,16.9
2019-03-21T10:28:53.450Z,16.9
2019-03-21T10:29:55.331Z,16.9
2019-03-21T10:30:57.910Z,16.8
2019-03-21T10:32:00.066Z,16.8
2019-03-21T10:33:02.294Z,16.8
2019-03-21T10:34:04.429Z,16.9
2019-03-21T10:35:06.362Z,16.9
2019-03-21T10:36:08.788Z,16.9
2019-03-21T10:37:11.218Z,16.8
2019-03-21T10:38:13.090Z,16.8
2019-03-21T10:39:15.518Z,16.8
2019-03-21T10:40:17.941Z,16.9
2019-03-21T10:41:20.102Z,16.9
2019-03-21T10:42:22.526Z,16.9
2019-03-21T10:43:24.691Z,16.8
2019-03-21T10:44:26.831Z,16.8
2019-03-21T10:45:28.688Z,16.9
2019-03-21T10:46:30.271Z,16.8
2019-03-21T10:47:32.698Z,16.9
2019-03-21T10:48:35.133Z,16.9
2019-03-21T10:49:37.557Z,16.8
2019-03-21T10:50:39.990Z,16.8
2019-03-21T10:51:42.148Z,16.8
2019-03-21T10:52:48.088Z,16.9
2019-03-21T10:53:50.518Z,16.9
2019-03-21T10:54:52.961Z,16.9
2019-03-21T10:55:55.389Z,16.8
2019-03-21T10:56:57.326Z,16.9
2019-03-21T10:57:59.183Z,16.9
2019-03-21T10:59:01.103Z,16.9
2019-03-21T11:00:03.554Z,17
2019-03-21T11:01:05.458Z,16.9
2019-03-21T11:02:08.221Z,16.9
2019-03-21T11:03:10.661Z,16.9
2019-03-21T11:04:12.541Z,17
2019-03-21T11:05:14.956Z,16.9
2019-03-21T11:06:17.118Z,16.8
2019-03-21T11:07:19.548Z,16.9
2019-03-21T11:08:21.704Z,16.9
2019-03-21T11:09:24.137Z,16.9
2019-03-21T11:10:26.575Z,16.8
2019-03-21T11:11:29.009Z,16.8
2019-03-21T11:12:31.454Z,16.8
2019-03-21T11:13:33.883Z,16.9
2019-03-21T11:14:36.033Z,16.9
2019-03-21T11:15:38.185Z,16.8
2019-03-21T11:16:40.630Z,16.9
2019-03-21T11:17:42.546Z,16.9
2019-03-21T11:18:44.708Z,16.9
2019-03-21T11:19:47.156Z,16.8
2019-03-21T11:20:49.300Z,16.8
2019-03-21T11:21:51.780Z,16.9
2019-03-21T11:23:58.911Z,16.9
2019-03-21T11:25:01.341Z,16.9
2019-03-21T11:26:03.769Z,16.9
2019-03-21T11:27:05.919Z,16.9
2019-03-21T11:28:08.060Z,17
2019-03-21T11:29:10.494Z,16.9
2019-03-21T11:31:17.910Z,16.8
2019-03-21T11:32:20.087Z,17
2019-03-21T11:33:22.521Z,16.9
2019-03-21T11:34:24.420Z,16.9
2019-03-21T11:35:26.574Z,16.9
2019-03-21T11:37:33.710Z,16.9
2019-03-21T11:38:35.840Z,17
2019-03-21T11:39:38.270Z,17
2019-03-21T11:40:40.160Z,16.8
2019-03-21T11:41:42.636Z,17
2019-03-21T11:42:44.809Z,16.9
2019-03-21T11:43:46.698Z,16.9
2019-03-21T11:44:49.139Z,16.8
2019-03-21T11:45:51.564Z,16.8
2019-03-21T11:46:58.002Z,16.9
2019-03-21T11:48:00.717Z,16.8
2019-03-21T11:49:03.181Z,17
2019-03-21T11:50:05.708Z,16.9
2019-03-21T11:51:08.128Z,17
2019-03-21T11:53:15.540Z,16.9
2019-03-21T11:54:18.031Z,16.8
2019-03-21T11:55:20.328Z,16.8
2019-03-21T11:56:22.760Z,17
2019-03-21T11:57:25.184Z,16.9
2019-03-21T11:58:27.362Z,16.9
2019-03-21T12:01:39.816Z,16.9
2019-03-21T12:02:42.356Z,17
2019-03-21T12:03:44.600Z,16.9
2019-03-21T12:04:47.060Z,16.9
2019-03-21T12:05:49.490Z,16.9
2019-03-21T12:06:51.650Z,17
2019-03-21T12:07:54.099Z,17
2019-03-21T12:08:56.290Z,16.9
2019-03-21T12:09:58.746Z,16.9
2019-03-21T12:11:00.628Z,16.9
2019-03-21T12:12:02.519Z,16.9
2019-03-21T12:13:04.995Z,16.9
2019-03-21T12:14:07.420Z,16.9
2019-03-21T12:15:09.462Z,17
2019-03-21T12:16:11.614Z,16.9
2019-03-21T12:17:13.781Z,16.9
2019-03-21T12:18:16.216Z,16.9
2019-03-21T12:19:18.663Z,17
2019-03-21T12:20:21.087Z,16.9
2019-03-21T12:21:23.261Z,16.9
2019-03-21T12:23:30.725Z,16.9
2019-03-21T12:24:33.158Z,17
2019-03-21T12:25:35.792Z,17
2019-03-21T12:26:38.218Z,17
2019-03-21T12:27:40.648Z,16.8
2019-03-21T12:28:43.094Z,17
2019-03-21T12:29:45.529Z,16.9
2019-03-21T12:30:47.961Z,16.9
2019-03-21T12:31:50.388Z,17
2019-03-21T12:32:52.821Z,16.8
2019-03-21T12:33:55.294Z,16.9
2019-03-21T12:35:02.191Z,16.9
2019-03-21T12:36:04.620Z,16.9
2019-03-21T12:37:07.045Z,17
2019-03-21T12:38:09.200Z,17
2019-03-21T12:39:11.626Z,16.9
2019-03-21T12:40:13.778Z,17
2019-03-21T12:41:15.406Z,16.9
2019-03-21T12:42:17.286Z,16.9
2019-03-21T12:43:19.467Z,17
2019-03-21T12:44:21.894Z,16.9
2019-03-21T12:45:24.324Z,17
2019-03-21T12:46:26.962Z,16.9
2019-03-21T12:48:34.381Z,16.9
2019-03-21T12:49:36.533Z,16.8
2019-03-21T12:50:38.990Z,16.9
2019-03-21T12:51:41.138Z,16.9
2019-03-21T12:52:43.574Z,17
2019-03-21T12:53:46.001Z,16.9
2019-03-21T12:54:47.882Z,17
2019-03-21T12:55:50.315Z,16.9
2019-03-21T12:56:53.641Z,17
2019-03-21T12:57:55.806Z,17
2019-03-21T12:58:57.969Z,17
2019-03-21T13:00:00.101Z,17
2019-03-21T13:01:02.617Z,16.9
2019-03-21T13:02:05.058Z,16.9
2019-03-21T13:03:07.490Z,16.9
2019-03-21T13:04:09.931Z,16.9
2019-03-21T13:05:12.357Z,16.9
2019-03-21T13:06:14.238Z,16.9
2019-03-21T13:07:17.889Z,16.9
2019-03-21T13:09:27.318Z,17
2019-03-21T13:10:29.487Z,16.9
2019-03-21T13:11:31.922Z,16.9
2019-03-21T13:12:34.360Z,17
2019-03-21T13:13:36.884Z,17
2019-03-21T13:14:39.129Z,17
2019-03-21T13:15:41.289Z,17
2019-03-21T13:16:43.444Z,16.9
2019-03-21T13:17:45.585Z,16.9
2019-03-21T13:18:48.030Z,16.9
2019-03-21T13:19:50.180Z,17
2019-03-21T13:20:52.632Z,17
2019-03-21T13:21:55.056Z,16.9
2019-03-21T13:22:57.492Z,16.9
2019-03-21T13:23:59.658Z,17
2019-03-21T13:25:01.839Z,17
2019-03-21T13:26:04.261Z,16.9
2019-03-21T13:27:06.418Z,17
2019-03-21T13:28:08.901Z,17
2019-03-21T13:29:11.328Z,16.9
2019-03-21T13:30:13.759Z,17
2019-03-21T13:31:16.198Z,16.9
2019-03-21T13:32:18.663Z,17
2019-03-21T13:33:21.194Z,17
2019-03-21T13:34:23.646Z,17
2019-03-21T13:35:40.741Z,17
2019-03-21T13:36:43.168Z,16.9
2019-03-21T13:37:45.608Z,16.9
2019-03-21T13:38:47.743Z,16.9
2019-03-21T13:39:50.188Z,16.9
2019-03-21T13:40:52.618Z,17
2019-03-21T13:41:55.054Z,17
2019-03-21T13:42:57.219Z,16.9
2019-03-21T13:43:58.837Z,17
2019-03-21T13:45:01.295Z,16.9
2019-03-21T13:46:03.724Z,17
2019-03-21T13:47:05.854Z,17
2019-03-21T13:48:08.005Z,17
2019-03-21T13:49:10.436Z,17
2019-03-21T13:50:12.870Z,17
2019-03-21T13:51:15.312Z,16.9
2019-03-21T13:52:17.477Z,17
2019-03-21T13:53:19.933Z,17
2019-03-21T13:54:22.406Z,17
2019-03-21T13:55:24.837Z,16.9
2019-03-21T13:57:32.257Z,16.9
2019-03-21T13:58:34.698Z,16.9
2019-03-21T13:59:36.821Z,17
2019-03-21T14:01:43.956Z,17
2019-03-21T14:02:45.560Z,17
2019-03-21T14:03:47.716Z,17
2019-03-21T14:04:50.165Z,17
2019-03-21T14:05:52.329Z,16.9
2019-03-21T14:06:58.268Z,17
2019-03-21T14:08:00.458Z,17
2019-03-21T14:09:02.889Z,17
2019-03-21T14:10:05.346Z,17
2019-03-21T14:11:07.537Z,16.9
2019-03-21T14:12:09.718Z,16.9
2019-03-21T14:13:12.180Z,17.1
2019-03-21T14:14:14.637Z,17.1
2019-03-21T14:15:17.076Z,17
2019-03-21T14:16:19.529Z,16.9
2019-03-21T14:17:22.805Z,17
2019-03-21T14:18:25.230Z,17
2019-03-21T14:19:27.439Z,17
2019-03-21T14:20:29.600Z,17
2019-03-21T14:21:31.496Z,17
2019-03-21T14:22:33.919Z,17
2019-03-21T14:24:41.349Z,17